sensor_id;sensor_type;location;lat;lon;timestamp;pressure;altitude;pressure_sealevel;temperature
79714;BMP280;69206;51.420;5.400;2023-05-07T00:00:09;101582.69;;;15.51
79714;BMP280;69206;51.420;5.400;2023-05-07T00:02:36;101576.19;;;15.46
79714;BMP280;69206;51.420;5.400;2023-05-07T00:05:03;101577.91;;;15.55
79714;BMP280;69206;51.420;5.400;2023-05-07T00:07:28;101567.28;;;15.47
79714;BMP280;69206;51.420;5.400;2023-05-07T00:09:54;101565.53;;;15.55
79714;BMP280;69206;51.420;5.400;2023-05-07T00:12:19;101565.16;;;15.50
79714;BMP280;69206;51.420;5.400;2023-05-07T00:14:45;101560.56;;;15.52
79714;BMP280;69206;51.420;5.400;2023-05-07T00:17:10;101558.72;;;15.53
79714;BMP280;69206;51.420;5.400;2023-05-07T00:19:36;101560.00;;;15.49
79714;BMP280;69206;51.420;5.400;2023-05-07T00:22:01;101566.19;;;15.57
79714;BMP280;69206;51.420;5.400;2023-05-07T00:24:26;101527.63;;;15.29
79714;BMP280;69206;51.420;5.400;2023-05-07T00:26:52;101559.81;;;15.42
79714;BMP280;69206;51.420;5.400;2023-05-07T00:29:18;101559.66;;;15.44
79714;BMP280;69206;51.420;5.400;2023-05-07T00:31:43;101557.66;;;15.46
79714;BMP280;69206;51.420;5.400;2023-05-07T00:34:08;101534.72;;;15.29
79714;BMP280;69206;51.420;5.400;2023-05-07T00:36:34;101558.63;;;15.37
79714;BMP280;69206;51.420;5.400;2023-05-07T00:39:00;101523.66;;;15.25
79714;BMP280;69206;51.420;5.400;2023-05-07T00:41:27;101556.63;;;15.39
79714;BMP280;69206;51.420;5.400;2023-05-07T00:43:52;101555.66;;;15.40
79714;BMP280;69206;51.420;5.400;2023-05-07T00:46:20;101537.28;;;15.38
79714;BMP280;69206;51.420;5.400;2023-05-07T00:48:46;101543.25;;;15.40
79714;BMP280;69206;51.420;5.400;2023-05-07T00:51:12;101552.38;;;15.46
79714;BMP280;69206;51.420;5.400;2023-05-07T00:53:38;101543.88;;;15.60
79714;BMP280;69206;51.420;5.400;2023-05-07T00:56:04;101549.41;;;15.49
79714;BMP280;69206;51.420;5.400;2023-05-07T00:58:32;101540.47;;;15.42
79714;BMP280;69206;51.420;5.400;2023-05-07T01:00:57;101561.31;;;15.45
79714;BMP280;69206;51.420;5.400;2023-05-07T01:03:23;101548.53;;;15.40
79714;BMP280;69206;51.420;5.400;2023-05-07T01:05:49;101545.75;;;15.42
79714;BMP280;69206;51.420;5.400;2023-05-07T01:08:15;101551.41;;;15.47
79714;BMP280;69206;51.420;5.400;2023-05-07T01:10:42;101545.13;;;15.48
79714;BMP280;69206;51.420;5.400;2023-05-07T01:13:09;101525.59;;;15.23
79714;BMP280;69206;51.420;5.400;2023-05-07T01:15:36;101544.59;;;15.44
79714;BMP280;69206;51.420;5.400;2023-05-07T01:18:02;101541.31;;;15.42
79714;BMP280;69206;51.420;5.400;2023-05-07T01:20:28;101539.50;;;15.43
79714;BMP280;69206;51.420;5.400;2023-05-07T01:22:54;101533.50;;;15.41
79714;BMP280;69206;51.420;5.400;2023-05-07T01:25:20;101537.81;;;15.42
79714;BMP280;69206;51.420;5.400;2023-05-07T01:27:45;101521.41;;;15.38
79714;BMP280;69206;51.420;5.400;2023-05-07T01:30:11;101481.47;;;15.24
79714;BMP280;69206;51.420;5.400;2023-05-07T01:32:43;101510.16;;;15.36
79714;BMP280;69206;51.420;5.400;2023-05-07T01:35:12;101518.00;;;15.46
79714;BMP280;69206;51.420;5.400;2023-05-07T01:37:39;101524.72;;;15.58
79714;BMP280;69206;51.420;5.400;2023-05-07T01:40:05;101528.56;;;15.46
79714;BMP280;69206;51.420;5.400;2023-05-07T01:42:32;101527.47;;;15.31
79714;BMP280;69206;51.420;5.400;2023-05-07T01:44:58;101520.25;;;15.15
79714;BMP280;69206;51.420;5.400;2023-05-07T01:47:24;101523.75;;;15.16
79714;BMP280;69206;51.420;5.400;2023-05-07T01:49:50;101516.69;;;15.24
79714;BMP280;69206;51.420;5.400;2023-05-07T01:52:17;101512.00;;;15.18
79714;BMP280;69206;51.420;5.400;2023-05-07T01:54:42;101477.81;;;14.99
79714;BMP280;69206;51.420;5.400;2023-05-07T01:57:08;101510.56;;;15.24
79714;BMP280;69206;51.420;5.400;2023-05-07T01:59:34;101506.84;;;15.17
79714;BMP280;69206;51.420;5.400;2023-05-07T02:01:59;101504.78;;;15.20
79714;BMP280;69206;51.420;5.400;2023-05-07T02:04:25;101504.06;;;15.18
79714;BMP280;69206;51.420;5.400;2023-05-07T02:06:51;101497.00;;;15.19
79714;BMP280;69206;51.420;5.400;2023-05-07T02:09:18;101507.97;;;15.32
79714;BMP280;69206;51.420;5.400;2023-05-07T02:11:43;101516.28;;;15.37
79714;BMP280;69206;51.420;5.400;2023-05-07T02:14:09;101511.56;;;15.23
79714;BMP280;69206;51.420;5.400;2023-05-07T02:16:35;101521.13;;;15.24
79714;BMP280;69206;51.420;5.400;2023-05-07T02:19:00;101516.06;;;15.30
79714;BMP280;69206;51.420;5.400;2023-05-07T02:21:26;101513.66;;;15.19
79714;BMP280;69206;51.420;5.400;2023-05-07T02:23:51;101525.09;;;15.20
79714;BMP280;69206;51.420;5.400;2023-05-07T02:26:17;101517.00;;;15.21
79714;BMP280;69206;51.420;5.400;2023-05-07T02:28:43;101529.53;;;15.19
79714;BMP280;69206;51.420;5.400;2023-05-07T02:31:08;101533.91;;;15.11
79714;BMP280;69206;51.420;5.400;2023-05-07T02:33:34;101502.13;;;15.03
79714;BMP280;69206;51.420;5.400;2023-05-07T02:36:08;101518.22;;;15.09
79714;BMP280;69206;51.420;5.400;2023-05-07T02:38:34;101484.38;;;14.95
79714;BMP280;69206;51.420;5.400;2023-05-07T02:41:00;101519.47;;;15.23
79714;BMP280;69206;51.420;5.400;2023-05-07T02:43:25;101500.19;;;15.05
79714;BMP280;69206;51.420;5.400;2023-05-07T02:46:00;101520.41;;;15.14
79714;BMP280;69206;51.420;5.400;2023-05-07T02:48:26;101514.78;;;15.17
79714;BMP280;69206;51.420;5.400;2023-05-07T02:50:52;101516.78;;;15.15
79714;BMP280;69206;51.420;5.400;2023-05-07T02:53:17;101524.03;;;15.13
79714;BMP280;69206;51.420;5.400;2023-05-07T02:55:43;101522.00;;;15.24
79714;BMP280;69206;51.420;5.400;2023-05-07T02:58:09;101518.34;;;15.25
79714;BMP280;69206;51.420;5.400;2023-05-07T03:00:34;101528.09;;;15.25
79714;BMP280;69206;51.420;5.400;2023-05-07T03:03:00;101529.22;;;15.40
79714;BMP280;69206;51.420;5.400;2023-05-07T03:05:25;101525.09;;;15.20
79714;BMP280;69206;51.420;5.400;2023-05-07T03:07:51;101518.81;;;15.21
79714;BMP280;69206;51.420;5.400;2023-05-07T03:10:16;101519.56;;;15.13
79714;BMP280;69206;51.420;5.400;2023-05-07T03:12:41;101522.97;;;15.06
79714;BMP280;69206;51.420;5.400;2023-05-07T03:15:07;101517.00;;;15.04
79714;BMP280;69206;51.420;5.400;2023-05-07T03:17:33;101509.75;;;15.06
79714;BMP280;69206;51.420;5.400;2023-05-07T03:19:58;101516.09;;;15.13
79714;BMP280;69206;51.420;5.400;2023-05-07T03:22:24;101514.44;;;15.12
79714;BMP280;69206;51.420;5.400;2023-05-07T03:24:49;101510.78;;;15.05
79714;BMP280;69206;51.420;5.400;2023-05-07T03:27:14;101503.78;;;15.04
79714;BMP280;69206;51.420;5.400;2023-05-07T03:29:40;101497.75;;;14.94
79714;BMP280;69206;51.420;5.400;2023-05-07T03:32:05;101507.09;;;15.06
79714;BMP280;69206;51.420;5.400;2023-05-07T03:34:31;101501.81;;;15.06
79714;BMP280;69206;51.420;5.400;2023-05-07T03:36:56;101504.31;;;15.07
79714;BMP280;69206;51.420;5.400;2023-05-07T03:39:21;101505.47;;;15.05
79714;BMP280;69206;51.420;5.400;2023-05-07T03:41:47;101499.19;;;15.06
79714;BMP280;69206;51.420;5.400;2023-05-07T03:44:12;101500.19;;;15.05
79714;BMP280;69206;51.420;5.400;2023-05-07T03:46:38;101500.69;;;15.08
79714;BMP280;69206;51.420;5.400;2023-05-07T03:49:03;101502.28;;;15.01
79714;BMP280;69206;51.420;5.400;2023-05-07T03:51:29;101500.19;;;15.05
79714;BMP280;69206;51.420;5.400;2023-05-07T03:53:55;101496.53;;;15.06
79714;BMP280;69206;51.420;5.400;2023-05-07T03:56:22;101505.38;;;15.14
79714;BMP280;69206;51.420;5.400;2023-05-07T03:58:48;101505.13;;;15.25
79714;BMP280;69206;51.420;5.400;2023-05-07T04:01:13;101494.56;;;15.08
79714;BMP280;69206;51.420;5.400;2023-05-07T04:03:39;101508.47;;;15.10
79714;BMP280;69206;51.420;5.400;2023-05-07T04:06:04;101513.69;;;15.02
79714;BMP280;69206;51.420;5.400;2023-05-07T04:08:30;101520.84;;;15.09
79714;BMP280;69206;51.420;5.400;2023-05-07T04:10:56;101522.69;;;15.09
79714;BMP280;69206;51.420;5.400;2023-05-07T04:13:21;101526.63;;;15.05
79714;BMP280;69206;51.420;5.400;2023-05-07T04:15:47;101519.91;;;15.10
79714;BMP280;69206;51.420;5.400;2023-05-07T04:18:14;101521.25;;;15.14
79714;BMP280;69206;51.420;5.400;2023-05-07T04:20:40;101533.75;;;15.12
79714;BMP280;69206;51.420;5.400;2023-05-07T04:23:05;101528.56;;;15.03
79714;BMP280;69206;51.420;5.400;2023-05-07T04:25:30;101527.97;;;15.09
79714;BMP280;69206;51.420;5.400;2023-05-07T04:27:56;101531.25;;;15.11
79714;BMP280;69206;51.420;5.400;2023-05-07T04:30:21;101534.91;;;15.10
79714;BMP280;69206;51.420;5.400;2023-05-07T04:32:47;101534.75;;;15.11
79714;BMP280;69206;51.420;5.400;2023-05-07T04:35:13;101519.19;;;15.08
79714;BMP280;69206;51.420;5.400;2023-05-07T04:37:39;101521.38;;;15.13
79714;BMP280;69206;51.420;5.400;2023-05-07T04:40:05;101520.94;;;15.17
79714;BMP280;69206;51.420;5.400;2023-05-07T04:42:31;101525.81;;;15.30
79714;BMP280;69206;51.420;5.400;2023-05-07T04:44:57;101512.91;;;15.27
79714;BMP280;69206;51.420;5.400;2023-05-07T04:47:22;101530.59;;;15.26
79714;BMP280;69206;51.420;5.400;2023-05-07T04:49:48;101521.09;;;15.16
79714;BMP280;69206;51.420;5.400;2023-05-07T04:52:13;101532.31;;;15.35
79714;BMP280;69206;51.420;5.400;2023-05-07T04:54:39;101533.06;;;15.28
79714;BMP280;69206;51.420;5.400;2023-05-07T04:57:04;101542.59;;;15.21
79714;BMP280;69206;51.420;5.400;2023-05-07T04:59:30;101535.69;;;15.28
79714;BMP280;69206;51.420;5.400;2023-05-07T05:01:55;101539.19;;;15.28
79714;BMP280;69206;51.420;5.400;2023-05-07T05:04:20;101547.78;;;15.30
79714;BMP280;69206;51.420;5.400;2023-05-07T05:06:46;101535.06;;;15.26
79714;BMP280;69206;51.420;5.400;2023-05-07T05:09:11;101537.00;;;15.24
79714;BMP280;69206;51.420;5.400;2023-05-07T05:11:37;101545.63;;;15.26
79714;BMP280;69206;51.420;5.400;2023-05-07T05:14:02;101544.81;;;15.25
79714;BMP280;69206;51.420;5.400;2023-05-07T05:16:27;101546.59;;;15.25
79714;BMP280;69206;51.420;5.400;2023-05-07T05:18:53;101548.28;;;15.26
79714;BMP280;69206;51.420;5.400;2023-05-07T05:21:20;101556.44;;;15.32
79714;BMP280;69206;51.420;5.400;2023-05-07T05:23:45;101540.91;;;15.37
79714;BMP280;69206;51.420;5.400;2023-05-07T05:26:11;101515.50;;;15.19
79714;BMP280;69206;51.420;5.400;2023-05-07T05:28:36;101547.59;;;15.41
79714;BMP280;69206;51.420;5.400;2023-05-07T05:31:01;101539.84;;;15.48
79714;BMP280;69206;51.420;5.400;2023-05-07T05:33:27;101559.03;;;15.50
79714;BMP280;69206;51.420;5.400;2023-05-07T05:35:54;101551.78;;;15.52
79714;BMP280;69206;51.420;5.400;2023-05-07T05:38:19;101565.38;;;15.57
79714;BMP280;69206;51.420;5.400;2023-05-07T05:40:46;101565.72;;;15.62
79714;BMP280;69206;51.420;5.400;2023-05-07T05:43:13;101504.34;;;15.33
79714;BMP280;69206;51.420;5.400;2023-05-07T05:45:39;101546.50;;;15.60
79714;BMP280;69206;51.420;5.400;2023-05-07T05:48:04;101565.47;;;15.73
79714;BMP280;69206;51.420;5.400;2023-05-07T05:50:30;101576.38;;;15.70
79714;BMP280;69206;51.420;5.400;2023-05-07T05:52:55;101565.84;;;15.78
79714;BMP280;69206;51.420;5.400;2023-05-07T05:55:21;101564.88;;;15.79
79714;BMP280;69206;51.420;5.400;2023-05-07T05:57:47;101559.84;;;15.76
79714;BMP280;69206;51.420;5.400;2023-05-07T06:00:13;101556.94;;;15.87
79714;BMP280;69206;51.420;5.400;2023-05-07T06:02:38;101571.31;;;16.02
79714;BMP280;69206;51.420;5.400;2023-05-07T06:05:04;101560.34;;;16.05
79714;BMP280;69206;51.420;5.400;2023-05-07T06:07:29;101559.28;;;16.23
79714;BMP280;69206;51.420;5.400;2023-05-07T06:09:55;101557.75;;;16.13
79714;BMP280;69206;51.420;5.400;2023-05-07T06:12:20;101564.91;;;16.20
79714;BMP280;69206;51.420;5.400;2023-05-07T06:14:46;101559.13;;;16.17
79714;BMP280;69206;51.420;5.400;2023-05-07T06:17:11;101570.72;;;16.24
79714;BMP280;69206;51.420;5.400;2023-05-07T06:19:37;101568.09;;;16.32
79714;BMP280;69206;51.420;5.400;2023-05-07T06:22:02;101563.09;;;16.29
79714;BMP280;69206;51.420;5.400;2023-05-07T06:24:28;101565.41;;;16.24
79714;BMP280;69206;51.420;5.400;2023-05-07T06:26:53;101559.28;;;16.23
79714;BMP280;69206;51.420;5.400;2023-05-07T06:29:19;101572.78;;;16.38
79714;BMP280;69206;51.420;5.400;2023-05-07T06:31:44;101560.63;;;16.27
79714;BMP280;69206;51.420;5.400;2023-05-07T06:34:10;101570.72;;;16.24
79714;BMP280;69206;51.420;5.400;2023-05-07T06:36:39;101563.31;;;16.35
79714;BMP280;69206;51.420;5.400;2023-05-07T06:39:05;101569.16;;;16.55
79714;BMP280;69206;51.420;5.400;2023-05-07T06:41:30;101569.00;;;16.64
79714;BMP280;69206;51.420;5.400;2023-05-07T06:43:56;101578.84;;;16.72
79714;BMP280;69206;51.420;5.400;2023-05-07T06:46:21;101578.63;;;16.57
79714;BMP280;69206;51.420;5.400;2023-05-07T06:48:47;101577.16;;;16.63
79714;BMP280;69206;51.420;5.400;2023-05-07T06:51:12;101582.59;;;16.53
79714;BMP280;69206;51.420;5.400;2023-05-07T06:53:38;101589.44;;;16.80
79714;BMP280;69206;51.420;5.400;2023-05-07T06:56:03;101594.75;;;16.72
79714;BMP280;69206;51.420;5.400;2023-05-07T06:58:29;101594.88;;;16.70
79714;BMP280;69206;51.420;5.400;2023-05-07T07:00:55;101591.06;;;16.65
79714;BMP280;69206;51.420;5.400;2023-05-07T07:03:20;101587.94;;;16.69
79714;BMP280;69206;51.420;5.400;2023-05-07T07:05:46;101583.09;;;16.57
79714;BMP280;69206;51.420;5.400;2023-05-07T07:08:11;101587.41;;;16.66
79714;BMP280;69206;51.420;5.400;2023-05-07T07:10:37;101589.28;;;16.81
79714;BMP280;69206;51.420;5.400;2023-05-07T07:13:02;101587.81;;;16.87
79714;BMP280;69206;51.420;5.400;2023-05-07T07:15:27;101590.31;;;16.88
79714;BMP280;69206;51.420;5.400;2023-05-07T07:17:53;101588.47;;;17.05
79714;BMP280;69206;51.420;5.400;2023-05-07T07:20:18;101589.16;;;17.15
79714;BMP280;69206;51.420;5.400;2023-05-07T07:22:44;101557.31;;;17.15
79714;BMP280;69206;51.420;5.400;2023-05-07T07:25:09;101529.81;;;16.92
79714;BMP280;69206;51.420;5.400;2023-05-07T07:27:36;101593.81;;;17.37
79714;BMP280;69206;51.420;5.400;2023-05-07T07:30:02;101559.63;;;17.26
79714;BMP280;69206;51.420;5.400;2023-05-07T07:32:28;101600.75;;;17.53
79714;BMP280;69206;51.420;5.400;2023-05-07T07:34:53;101594.13;;;17.57
79714;BMP280;69206;51.420;5.400;2023-05-07T07:37:18;101597.44;;;17.51
79714;BMP280;69206;51.420;5.400;2023-05-07T07:39:44;101604.38;;;17.68
79714;BMP280;69206;51.420;5.400;2023-05-07T07:42:10;101601.72;;;17.68
79714;BMP280;69206;51.420;5.400;2023-05-07T07:44:35;101602.72;;;17.75
79714;BMP280;69206;51.420;5.400;2023-05-07T07:47:00;101604.97;;;17.94
79714;BMP280;69206;51.420;5.400;2023-05-07T07:49:26;101603.69;;;18.29
79714;BMP280;69206;51.420;5.400;2023-05-07T07:51:52;101588.38;;;18.39
79714;BMP280;69206;51.420;5.400;2023-05-07T07:54:17;101601.91;;;18.21
79714;BMP280;69206;51.420;5.400;2023-05-07T07:56:43;101606.97;;;18.39
79714;BMP280;69206;51.420;5.400;2023-05-07T07:59:08;101601.16;;;18.43
79714;BMP280;69206;51.420;5.400;2023-05-07T08:01:34;101574.97;;;18.24
79714;BMP280;69206;51.420;5.400;2023-05-07T08:03:59;101599.41;;;18.58
79714;BMP280;69206;51.420;5.400;2023-05-07T08:06:25;101593.06;;;18.82
79714;BMP280;69206;51.420;5.400;2023-05-07T08:08:53;101587.94;;;18.80
79714;BMP280;69206;51.420;5.400;2023-05-07T08:11:19;101597.81;;;18.94
79714;BMP280;69206;51.420;5.400;2023-05-07T08:13:45;101593.97;;;19.19
79714;BMP280;69206;51.420;5.400;2023-05-07T08:16:11;101595.44;;;19.36
79714;BMP280;69206;51.420;5.400;2023-05-07T08:18:36;101589.06;;;19.74
79714;BMP280;69206;51.420;5.400;2023-05-07T08:21:01;101592.16;;;20.21
79714;BMP280;69206;51.420;5.400;2023-05-07T08:23:27;101570.97;;;20.76
79714;BMP280;69206;51.420;5.400;2023-05-07T08:25:53;101598.09;;;21.27
79714;BMP280;69206;51.420;5.400;2023-05-07T08:28:18;101600.63;;;21.35
79714;BMP280;69206;51.420;5.400;2023-05-07T08:30:44;101607.69;;;20.95
79714;BMP280;69206;51.420;5.400;2023-05-07T08:33:10;101602.84;;;20.84
79714;BMP280;69206;51.420;5.400;2023-05-07T08:35:35;101608.72;;;20.73
79714;BMP280;69206;51.420;5.400;2023-05-07T08:38:01;101605.16;;;20.66
79714;BMP280;69206;51.420;5.400;2023-05-07T08:40:26;101615.09;;;20.51
79714;BMP280;69206;51.420;5.400;2023-05-07T08:42:55;101614.53;;;20.41
79714;BMP280;69206;51.420;5.400;2023-05-07T08:45:22;101618.53;;;20.16
79714;BMP280;69206;51.420;5.400;2023-05-07T08:47:52;101624.50;;;20.03
79714;BMP280;69206;51.420;5.400;2023-05-07T08:50:21;101621.94;;;20.10
79714;BMP280;69206;51.420;5.400;2023-05-07T08:52:47;101608.50;;;20.03
79714;BMP280;69206;51.420;5.400;2023-05-07T08:55:12;101618.25;;;20.25
79714;BMP280;69206;51.420;5.400;2023-05-07T08:57:38;101611.78;;;20.34
79714;BMP280;69206;51.420;5.400;2023-05-07T09:00:04;101628.25;;;20.38
79714;BMP280;69206;51.420;5.400;2023-05-07T09:02:32;101618.38;;;20.74
79714;BMP280;69206;51.420;5.400;2023-05-07T09:04:57;101616.09;;;20.92
79714;BMP280;69206;51.420;5.400;2023-05-07T09:07:23;101610.59;;;21.20
79714;BMP280;69206;51.420;5.400;2023-05-07T09:09:50;101630.81;;;21.08
79714;BMP280;69206;51.420;5.400;2023-05-07T09:12:17;101618.13;;;20.90
79714;BMP280;69206;51.420;5.400;2023-05-07T09:14:43;101569.69;;;20.93
79714;BMP280;69206;51.420;5.400;2023-05-07T09:17:09;101629.63;;;21.11
79714;BMP280;69206;51.420;5.400;2023-05-07T09:19:34;101618.72;;;21.33
79714;BMP280;69206;51.420;5.400;2023-05-07T09:22:05;101623.53;;;20.75
79714;BMP280;69206;51.420;5.400;2023-05-07T09:24:32;101625.59;;;20.80
79714;BMP280;69206;51.420;5.400;2023-05-07T09:27:01;101603.69;;;21.05
79714;BMP280;69206;51.420;5.400;2023-05-07T09:29:28;101593.94;;;21.18
79714;BMP280;69206;51.420;5.400;2023-05-07T09:31:56;101624.19;;;21.04
79714;BMP280;69206;51.420;5.400;2023-05-07T09:34:21;101603.72;;;21.11
79714;BMP280;69206;51.420;5.400;2023-05-07T09:36:47;101624.13;;;21.46
79714;BMP280;69206;51.420;5.400;2023-05-07T09:39:13;101627.84;;;21.52
79714;BMP280;69206;51.420;5.400;2023-05-07T09:41:46;101617.84;;;21.60
79714;BMP280;69206;51.420;5.400;2023-05-07T09:44:12;101614.78;;;21.08
79714;BMP280;69206;51.420;5.400;2023-05-07T09:46:38;101621.22;;;21.41
79714;BMP280;69206;51.420;5.400;2023-05-07T09:49:06;101615.16;;;21.60
79714;BMP280;69206;51.420;5.400;2023-05-07T09:51:41;101628.09;;;21.29
79714;BMP280;69206;51.420;5.400;2023-05-07T09:54:08;101621.28;;;21.20
79714;BMP280;69206;51.420;5.400;2023-05-07T09:56:35;101605.09;;;21.28
79714;BMP280;69206;51.420;5.400;2023-05-07T09:59:03;101597.19;;;21.75
79714;BMP280;69206;51.420;5.400;2023-05-07T10:01:31;101629.88;;;22.18
79714;BMP280;69206;51.420;5.400;2023-05-07T10:03:57;101627.78;;;22.13
79714;BMP280;69206;51.420;5.400;2023-05-07T10:06:24;101624.09;;;22.21
79714;BMP280;69206;51.420;5.400;2023-05-07T10:08:52;101627.53;;;22.68
79714;BMP280;69206;51.420;5.400;2023-05-07T10:11:19;101625.88;;;23.32
79714;BMP280;69206;51.420;5.400;2023-05-07T10:13:46;101602.56;;;23.39
79714;BMP280;69206;51.420;5.400;2023-05-07T10:16:11;101592.50;;;23.28
79714;BMP280;69206;51.420;5.400;2023-05-07T10:18:38;101619.97;;;24.24
79714;BMP280;69206;51.420;5.400;2023-05-07T10:21:10;101612.31;;;24.27
79714;BMP280;69206;51.420;5.400;2023-05-07T10:23:36;101618.31;;;24.54
79714;BMP280;69206;51.420;5.400;2023-05-07T10:26:05;101612.31;;;24.58
79714;BMP280;69206;51.420;5.400;2023-05-07T10:28:35;101574.56;;;25.02
79714;BMP280;69206;51.420;5.400;2023-05-07T10:33:44;101616.28;;;24.49
79714;BMP280;69206;51.420;5.400;2023-05-07T10:36:11;101609.44;;;24.53
79714;BMP280;69206;51.420;5.400;2023-05-07T10:38:37;101599.63;;;24.65
79714;BMP280;69206;51.420;5.400;2023-05-07T10:41:03;101626.44;;;24.16
79714;BMP280;69206;51.420;5.400;2023-05-07T10:43:44;101620.69;;;24.06
79714;BMP280;69206;51.420;5.400;2023-05-07T10:49:15;101627.09;;;24.67
79714;BMP280;69206;51.420;5.400;2023-05-07T10:51:41;101623.34;;;24.44
79714;BMP280;69206;51.420;5.400;2023-05-07T10:56:35;101614.16;;;22.94
79714;BMP280;69206;51.420;5.400;2023-05-07T11:02:02;101629.47;;;23.83
79714;BMP280;69206;51.420;5.400;2023-05-07T11:04:29;101614.94;;;24.34
79714;BMP280;69206;51.420;5.400;2023-05-07T11:17:34;101612.91;;;23.92
79714;BMP280;69206;51.420;5.400;2023-05-07T11:20:01;101622.91;;;24.16
79714;BMP280;69206;51.420;5.400;2023-05-07T11:24:56;101615.13;;;24.01
79714;BMP280;69206;51.420;5.400;2023-05-07T11:27:25;101618.03;;;24.37
79714;BMP280;69206;51.420;5.400;2023-05-07T11:29:52;101617.06;;;24.56
79714;BMP280;69206;51.420;5.400;2023-05-07T11:34:56;101617.31;;;23.74
79714;BMP280;69206;51.420;5.400;2023-05-07T11:37:23;101614.63;;;23.74
79714;BMP280;69206;51.420;5.400;2023-05-07T11:39:49;101591.03;;;23.95
79714;BMP280;69206;51.420;5.400;2023-05-07T11:42:34;101632.84;;;23.52
79714;BMP280;69206;51.420;5.400;2023-05-07T11:45:00;101618.75;;;23.70
79714;BMP280;69206;51.420;5.400;2023-05-07T11:47:25;101612.25;;;23.46
79714;BMP280;69206;51.420;5.400;2023-05-07T11:49:53;101623.44;;;23.11
79714;BMP280;69206;51.420;5.400;2023-05-07T11:52:20;101631.66;;;22.90
79714;BMP280;69206;51.420;5.400;2023-05-07T11:54:56;101631.44;;;22.59
79714;BMP280;69206;51.420;5.400;2023-05-07T11:57:23;101632.34;;;22.19
79714;BMP280;69206;51.420;5.400;2023-05-07T11:59:53;101634.31;;;22.04
79714;BMP280;69206;51.420;5.400;2023-05-07T12:02:19;101620.56;;;22.14
79714;BMP280;69206;51.420;5.400;2023-05-07T12:04:44;101620.56;;;22.07
79714;BMP280;69206;51.420;5.400;2023-05-07T12:07:16;101621.63;;;22.19
79714;BMP280;69206;51.420;5.400;2023-05-07T12:09:44;101624.09;;;22.08
79714;BMP280;69206;51.420;5.400;2023-05-07T12:12:11;101629.28;;;21.82
79714;BMP280;69206;51.420;5.400;2023-05-07T12:14:44;101656.44;;;21.03
79714;BMP280;69206;51.420;5.400;2023-05-07T12:17:11;101665.97;;;18.95
79714;BMP280;69206;51.420;5.400;2023-05-07T12:19:39;101672.78;;;18.67
79714;BMP280;69206;51.420;5.400;2023-05-07T12:22:07;101701.47;;;18.41
79714;BMP280;69206;51.420;5.400;2023-05-07T12:24:47;101659.63;;;17.41
79714;BMP280;69206;51.420;5.400;2023-05-07T12:27:16;101736.31;;;16.95
79714;BMP280;69206;51.420;5.400;2023-05-07T12:29:46;101727.28;;;16.38
79714;BMP280;69206;51.420;5.400;2023-05-07T12:32:16;101734.34;;;16.30
79714;BMP280;69206;51.420;5.400;2023-05-07T12:34:41;101727.69;;;16.26
79714;BMP280;69206;51.420;5.400;2023-05-07T12:37:07;101724.47;;;16.40
79714;BMP280;69206;51.420;5.400;2023-05-07T12:39:32;101715.28;;;16.60
79714;BMP280;69206;51.420;5.400;2023-05-07T12:41:59;101712.03;;;16.74
79714;BMP280;69206;51.420;5.400;2023-05-07T12:44:29;101692.69;;;16.89
79714;BMP280;69206;51.420;5.400;2023-05-07T12:46:55;101711.66;;;17.02
79714;BMP280;69206;51.420;5.400;2023-05-07T12:49:20;101707.88;;;17.13
79714;BMP280;69206;51.420;5.400;2023-05-07T12:51:49;101684.66;;;17.15
79714;BMP280;69206;51.420;5.400;2023-05-07T12:54:30;101721.34;;;17.43
79714;BMP280;69206;51.420;5.400;2023-05-07T12:57:02;101732.13;;;17.49
79714;BMP280;69206;51.420;5.400;2023-05-07T12:59:39;101729.84;;;17.54
79714;BMP280;69206;51.420;5.400;2023-05-07T13:02:05;101741.09;;;17.80
79714;BMP280;69206;51.420;5.400;2023-05-07T13:04:30;101749.41;;;18.01
79714;BMP280;69206;51.420;5.400;2023-05-07T13:06:56;101750.91;;;18.12
79714;BMP280;69206;51.420;5.400;2023-05-07T13:09:21;101746.16;;;18.54
79714;BMP280;69206;51.420;5.400;2023-05-07T13:11:47;101750.53;;;18.85
79714;BMP280;69206;51.420;5.400;2023-05-07T13:14:12;101747.41;;;18.74
79714;BMP280;69206;51.420;5.400;2023-05-07T13:16:38;101755.25;;;18.59
79714;BMP280;69206;51.420;5.400;2023-05-07T13:19:03;101750.69;;;18.37
79714;BMP280;69206;51.420;5.400;2023-05-07T13:21:29;101764.03;;;17.97
79714;BMP280;69206;51.420;5.400;2023-05-07T13:23:56;101757.03;;;17.80
79714;BMP280;69206;51.420;5.400;2023-05-07T13:26:23;101753.72;;;17.86
79714;BMP280;69206;51.420;5.400;2023-05-07T13:28:48;101755.41;;;17.95
79714;BMP280;69206;51.420;5.400;2023-05-07T13:31:13;101722.84;;;18.01
79714;BMP280;69206;51.420;5.400;2023-05-07T13:33:39;101745.00;;;18.48
79714;BMP280;69206;51.420;5.400;2023-05-07T13:36:05;101736.50;;;19.44
79714;BMP280;69206;51.420;5.400;2023-05-07T13:38:30;101741.22;;;19.79
79714;BMP280;69206;51.420;5.400;2023-05-07T13:40:56;101749.72;;;19.29
79714;BMP280;69206;51.420;5.400;2023-05-07T13:43:21;101740.53;;;19.40
79714;BMP280;69206;51.420;5.400;2023-05-07T13:45:47;101741.34;;;19.63
79714;BMP280;69206;51.420;5.400;2023-05-07T13:48:12;101740.69;;;19.83
79714;BMP280;69206;51.420;5.400;2023-05-07T13:50:38;101742.72;;;19.96
79714;BMP280;69206;51.420;5.400;2023-05-07T13:53:03;101752.28;;;20.05
79714;BMP280;69206;51.420;5.400;2023-05-07T13:55:29;101743.88;;;19.79
79714;BMP280;69206;51.420;5.400;2023-05-07T13:57:57;101722.78;;;19.33
79714;BMP280;69206;51.420;5.400;2023-05-07T14:00:23;101752.91;;;19.33
79714;BMP280;69206;51.420;5.400;2023-05-07T14:02:49;101754.03;;;19.08
79714;BMP280;69206;51.420;5.400;2023-05-07T14:05:14;101753.03;;;19.09
79714;BMP280;69206;51.420;5.400;2023-05-07T14:07:39;101749.13;;;18.97
79714;BMP280;69206;51.420;5.400;2023-05-07T14:10:05;101747.19;;;18.83
79714;BMP280;69206;51.420;5.400;2023-05-07T14:12:32;101739.56;;;18.80
79714;BMP280;69206;51.420;5.400;2023-05-07T14:14:58;101745.94;;;19.02
79714;BMP280;69206;51.420;5.400;2023-05-07T14:17:23;101750.69;;;19.14